sensor_id;sensor_type;location;lat;lon;timestamp;P1;durP1;ratioP1;P2;durP2;ratioP2
21665;SDS011;10994;45.486;9.190;2023-02-18T00:01:51;9.47;;;7.80;;
21665;SDS011;10994;45.486;9.190;2023-02-18T00:04:17;8.60;;;7.77;;
21665;SDS011;10994;45.486;9.190;2023-02-18T00:06:43;10.70;;;7.37;;
21665;SDS011;10994;45.486;9.190;2023-02-18T00:09:09;10.80;;;8.03;;
21665;SDS011;10994;45.486;9.190;2023-02-18T00:11:36;8.03;;;7.23;;
21665;SDS011;10994;45.486;9.190;2023-02-18T00:14:03;10.23;;;7.03;;
21665;SDS011;10994;45.486;9.190;2023-02-18T00:16:30;9.07;;;7.87;;
21665;SDS011;10994;45.486;9.190;2023-02-18T00:18:57;12.87;;;7.83;;
21665;SDS011;10994;45.486;9.190;2023-02-18T00:21:23;11.70;;;7.30;;
21665;SDS011;10994;45.486;9.190;2023-02-18T00:23:49;9.40;;;7.07;;
21665;SDS011;10994;45.486;9.190;2023-02-18T00:26:16;9.53;;;7.33;;
21665;SDS011;10994;45.486;9.190;2023-02-18T00:28:43;9.77;;;7.43;;
21665;SDS011;10994;45.486;9.190;2023-02-18T00:31:12;10.77;;;7.30;;
21665;SDS011;10994;45.486;9.190;2023-02-18T00:33:39;9.47;;;7.03;;
21665;SDS011;10994;45.486;9.190;2023-02-18T00:36:07;9.93;;;6.97;;
21665;SDS011;10994;45.486;9.190;2023-02-18T00:38:34;9.53;;;6.70;;
21665;SDS011;10994;45.486;9.190;2023-02-18T00:41:00;9.03;;;6.90;;
21665;SDS011;10994;45.486;9.190;2023-02-18T00:43:26;9.70;;;6.90;;
21665;SDS011;10994;45.486;9.190;2023-02-18T00:45:53;7.40;;;6.47;;
21665;SDS011;10994;45.486;9.190;2023-02-18T00:48:19;6.70;;;6.03;;
21665;SDS011;10994;45.486;9.190;2023-02-18T00:50:45;9.80;;;6.83;;
21665;SDS011;10994;45.486;9.190;2023-02-18T00:53:11;6.87;;;6.17;;
21665;SDS011;10994;45.486;9.190;2023-02-18T00:55:41;8.77;;;7.13;;
21665;SDS011;10994;45.486;9.190;2023-02-18T00:58:09;7.67;;;5.77;;
21665;SDS011;10994;45.486;9.190;2023-02-18T01:00:36;8.17;;;6.10;;
21665;SDS011;10994;45.486;9.190;2023-02-18T01:03:02;6.70;;;6.00;;
21665;SDS011;10994;45.486;9.190;2023-02-18T01:05:30;7.93;;;5.50;;
21665;SDS011;10994;45.486;9.190;2023-02-18T01:07:56;7.40;;;6.20;;
21665;SDS011;10994;45.486;9.190;2023-02-18T01:10:22;7.00;;;5.57;;
21665;SDS011;10994;45.486;9.190;2023-02-18T01:12:50;7.80;;;6.50;;
21665;SDS011;10994;45.486;9.190;2023-02-18T01:15:16;9.33;;;6.00;;
21665;SDS011;10994;45.486;9.190;2023-02-18T01:17:42;6.80;;;6.10;;
21665;SDS011;10994;45.486;9.190;2023-02-18T01:20:08;8.47;;;6.60;;
21665;SDS011;10994;45.486;9.190;2023-02-18T01:22:35;8.70;;;5.77;;
21665;SDS011;10994;45.486;9.190;2023-02-18T01:25:01;8.53;;;5.93;;
21665;SDS011;10994;45.486;9.190;2023-02-18T01:27:27;7.77;;;5.80;;
21665;SDS011;10994;45.486;9.190;2023-02-18T01:29:53;7.97;;;5.53;;
21665;SDS011;10994;45.486;9.190;2023-02-18T01:32:21;8.47;;;6.00;;
21665;SDS011;10994;45.486;9.190;2023-02-18T01:34:48;8.60;;;6.17;;
21665;SDS011;10994;45.486;9.190;2023-02-18T01:37:14;7.53;;;6.33;;
21665;SDS011;10994;45.486;9.190;2023-02-18T01:39:40;7.60;;;6.13;;
21665;SDS011;10994;45.486;9.190;2023-02-18T01:42:05;8.43;;;6.80;;
21665;SDS011;10994;45.486;9.190;2023-02-18T01:44:39;7.07;;;6.17;;
21665;SDS011;10994;45.486;9.190;2023-02-18T01:47:05;8.63;;;6.30;;
21665;SDS011;10994;45.486;9.190;2023-02-18T01:49:31;7.83;;;6.47;;
21665;SDS011;10994;45.486;9.190;2023-02-18T01:52:04;8.20;;;6.57;;
21665;SDS011;10994;45.486;9.190;2023-02-18T01:54:35;8.93;;;7.03;;
21665;SDS011;10994;45.486;9.190;2023-02-18T01:57:08;8.60;;;6.83;;
21665;SDS011;10994;45.486;9.190;2023-02-18T01:59:45;9.30;;;6.83;;
21665;SDS011;10994;45.486;9.190;2023-02-18T02:02:24;9.37;;;7.03;;
21665;SDS011;10994;45.486;9.190;2023-02-18T02:04:52;7.87;;;6.67;;
21665;SDS011;10994;45.486;9.190;2023-02-18T02:07:23;7.77;;;6.63;;
21665;SDS011;10994;45.486;9.190;2023-02-18T02:09:53;7.17;;;6.00;;
21665;SDS011;10994;45.486;9.190;2023-02-18T02:16:05;8.37;;;6.77;;
21665;SDS011;10994;45.486;9.190;2023-02-18T02:21:56;10.23;;;6.97;;
21665;SDS011;10994;45.486;9.190;2023-02-18T02:24:41;8.57;;;7.30;;
21665;SDS011;10994;45.486;9.190;2023-02-18T02:36:24;12.70;;;8.10;;
21665;SDS011;10994;45.486;9.190;2023-02-18T02:38:53;9.70;;;6.63;;
21665;SDS011;10994;45.486;9.190;2023-02-18T02:41:39;7.67;;;6.80;;
21665;SDS011;10994;45.486;9.190;2023-02-18T02:44:21;8.23;;;7.00;;
21665;SDS011;10994;45.486;9.190;2023-02-18T02:46:51;11.00;;;7.27;;
21665;SDS011;10994;45.486;9.190;2023-02-18T02:49:38;9.50;;;6.97;;
21665;SDS011;10994;45.486;9.190;2023-02-18T02:52:21;7.20;;;6.50;;
21665;SDS011;10994;45.486;9.190;2023-02-18T02:54:51;9.77;;;7.93;;
21665;SDS011;10994;45.486;9.190;2023-02-18T02:59:59;11.97;;;8.67;;
21665;SDS011;10994;45.486;9.190;2023-02-18T03:10:18;10.53;;;7.73;;
21665;SDS011;10994;45.486;9.190;2023-02-18T03:17:49;10.50;;;8.00;;
21665;SDS011;10994;45.486;9.190;2023-02-18T03:20:26;9.97;;;7.97;;
21665;SDS011;10994;45.486;9.190;2023-02-18T03:22:55;9.60;;;7.47;;
21665;SDS011;10994;45.486;9.190;2023-02-18T03:25:23;8.77;;;7.27;;
21665;SDS011;10994;45.486;9.190;2023-02-18T03:30:17;13.07;;;8.33;;
21665;SDS011;10994;45.486;9.190;2023-02-18T03:32:45;11.70;;;8.30;;
21665;SDS011;10994;45.486;9.190;2023-02-18T03:35:13;9.53;;;7.87;;
21665;SDS011;10994;45.486;9.190;2023-02-18T03:37:50;10.53;;;8.27;;
21665;SDS011;10994;45.486;9.190;2023-02-18T03:40:20;8.20;;;7.40;;
21665;SDS011;10994;45.486;9.190;2023-02-18T03:42:46;10.20;;;8.03;;
21665;SDS011;10994;45.486;9.190;2023-02-18T03:45:12;9.00;;;7.93;;
21665;SDS011;10994;45.486;9.190;2023-02-18T03:47:40;9.67;;;7.80;;
21665;SDS011;10994;45.486;9.190;2023-02-18T03:50:06;9.63;;;8.20;;
21665;SDS011;10994;45.486;9.190;2023-02-18T03:52:33;9.53;;;7.87;;
21665;SDS011;10994;45.486;9.190;2023-02-18T03:55:01;11.33;;;7.20;;
21665;SDS011;10994;45.486;9.190;2023-02-18T03:57:29;9.70;;;7.67;;
21665;SDS011;10994;45.486;9.190;2023-02-18T03:59:55;8.93;;;7.70;;
21665;SDS011;10994;45.486;9.190;2023-02-18T04:02:21;8.70;;;7.57;;
21665;SDS011;10994;45.486;9.190;2023-02-18T04:04:47;9.70;;;7.77;;
21665;SDS011;10994;45.486;9.190;2023-02-18T04:07:13;10.87;;;8.20;;
21665;SDS011;10994;45.486;9.190;2023-02-18T04:09:39;9.63;;;8.10;;
21665;SDS011;10994;45.486;9.190;2023-02-18T04:12:05;9.33;;;8.40;;
21665;SDS011;10994;45.486;9.190;2023-02-18T04:14:31;10.77;;;8.43;;
21665;SDS011;10994;45.486;9.190;2023-02-18T04:16:57;10.47;;;8.53;;
21665;SDS011;10994;45.486;9.190;2023-02-18T04:19:23;8.77;;;7.83;;
21665;SDS011;10994;45.486;9.190;2023-02-18T04:21:49;12.53;;;8.37;;
21665;SDS011;10994;45.486;9.190;2023-02-18T04:24:15;10.93;;;7.97;;
21665;SDS011;10994;45.486;9.190;2023-02-18T04:26:41;12.27;;;8.33;;
21665;SDS011;10994;45.486;9.190;2023-02-18T04:29:07;9.87;;;8.13;;
21665;SDS011;10994;45.486;9.190;2023-02-18T04:31:33;10.23;;;8.80;;
21665;SDS011;10994;45.486;9.190;2023-02-18T04:34:00;12.90;;;8.37;;
21665;SDS011;10994;45.486;9.190;2023-02-18T04:36:26;10.90;;;9.57;;
21665;SDS011;10994;45.486;9.190;2023-02-18T04:38:52;13.13;;;8.60;;
21665;SDS011;10994;45.486;9.190;2023-02-18T04:41:18;12.03;;;9.23;;
21665;SDS011;10994;45.486;9.190;2023-02-18T04:43:44;12.33;;;8.57;;
21665;SDS011;10994;45.486;9.190;2023-02-18T04:46:10;12.97;;;9.07;;
21665;SDS011;10994;45.486;9.190;2023-02-18T04:48:36;12.93;;;9.33;;
21665;SDS011;10994;45.486;9.190;2023-02-18T04:51:02;10.80;;;8.93;;
21665;SDS011;10994;45.486;9.190;2023-02-18T04:53:29;11.67;;;8.63;;
21665;SDS011;10994;45.486;9.190;2023-02-18T04:55:55;11.53;;;9.33;;
21665;SDS011;10994;45.486;9.190;2023-02-18T04:58:21;12.07;;;9.07;;
21665;SDS011;10994;45.486;9.190;2023-02-18T05:00:47;11.00;;;9.17;;
21665;SDS011;10994;45.486;9.190;2023-02-18T05:03:13;18.97;;;10.13;;
21665;SDS011;10994;45.486;9.190;2023-02-18T05:05:39;17.77;;;9.67;;
21665;SDS011;10994;45.486;9.190;2023-02-18T05:08:06;14.63;;;9.73;;
21665;SDS011;10994;45.486;9.190;2023-02-18T05:10:32;12.10;;;9.70;;
21665;SDS011;10994;45.486;9.190;2023-02-18T05:12:58;12.67;;;10.00;;
21665;SDS011;10994;45.486;9.190;2023-02-18T05:15:24;12.30;;;9.40;;
21665;SDS011;10994;45.486;9.190;2023-02-18T05:17:51;12.07;;;10.07;;
21665;SDS011;10994;45.486;9.190;2023-02-18T05:20:17;16.73;;;9.80;;
21665;SDS011;10994;45.486;9.190;2023-02-18T05:22:43;13.83;;;10.20;;
21665;SDS011;10994;45.486;9.190;2023-02-18T05:25:09;14.47;;;10.80;;
21665;SDS011;10994;45.486;9.190;2023-02-18T05:27:35;14.57;;;10.50;;
21665;SDS011;10994;45.486;9.190;2023-02-18T05:30:01;14.97;;;9.50;;
21665;SDS011;10994;45.486;9.190;2023-02-18T05:32:27;15.70;;;10.37;;
21665;SDS011;10994;45.486;9.190;2023-02-18T05:34:53;12.20;;;9.43;;
21665;SDS011;10994;45.486;9.190;2023-02-18T05:37:19;16.10;;;11.20;;
21665;SDS011;10994;45.486;9.190;2023-02-18T05:39:45;12.90;;;10.10;;
21665;SDS011;10994;45.486;9.190;2023-02-18T05:42:11;16.60;;;10.93;;
21665;SDS011;10994;45.486;9.190;2023-02-18T05:44:37;12.93;;;10.97;;
21665;SDS011;10994;45.486;9.190;2023-02-18T05:47:08;15.47;;;11.07;;
21665;SDS011;10994;45.486;9.190;2023-02-18T05:49:35;14.40;;;10.80;;
21665;SDS011;10994;45.486;9.190;2023-02-18T05:52:01;14.43;;;10.67;;
21665;SDS011;10994;45.486;9.190;2023-02-18T05:54:27;16.33;;;11.27;;
21665;SDS011;10994;45.486;9.190;2023-02-18T05:56:54;17.40;;;11.17;;
21665;SDS011;10994;45.486;9.190;2023-02-18T05:59:20;17.60;;;12.87;;
21665;SDS011;10994;45.486;9.190;2023-02-18T06:01:46;13.73;;;12.13;;
21665;SDS011;10994;45.486;9.190;2023-02-18T06:04:12;16.50;;;12.03;;
21665;SDS011;10994;45.486;9.190;2023-02-18T06:06:39;15.13;;;12.47;;
21665;SDS011;10994;45.486;9.190;2023-02-18T06:09:05;17.23;;;11.73;;
21665;SDS011;10994;45.486;9.190;2023-02-18T06:11:32;14.57;;;11.33;;
21665;SDS011;10994;45.486;9.190;2023-02-18T06:13:58;14.90;;;11.40;;
21665;SDS011;10994;45.486;9.190;2023-02-18T06:16:24;16.83;;;12.50;;
21665;SDS011;10994;45.486;9.190;2023-02-18T06:18:50;17.17;;;11.30;;
21665;SDS011;10994;45.486;9.190;2023-02-18T06:21:16;14.50;;;11.03;;
21665;SDS011;10994;45.486;9.190;2023-02-18T06:23:42;15.37;;;11.63;;
21665;SDS011;10994;45.486;9.190;2023-02-18T06:26:08;19.00;;;12.33;;
21665;SDS011;10994;45.486;9.190;2023-02-18T06:28:35;18.23;;;11.57;;
21665;SDS011;10994;45.486;9.190;2023-02-18T06:31:01;17.77;;;11.07;;
21665;SDS011;10994;45.486;9.190;2023-02-18T06:33:27;15.70;;;10.50;;
21665;SDS011;10994;45.486;9.190;2023-02-18T06:36:03;17.23;;;11.10;;
21665;SDS011;10994;45.486;9.190;2023-02-18T06:38:36;14.93;;;10.77;;
21665;SDS011;10994;45.486;9.190;2023-02-18T06:41:03;12.50;;;10.27;;
21665;SDS011;10994;45.486;9.190;2023-02-18T06:43:29;15.80;;;11.57;;
21665;SDS011;10994;45.486;9.190;2023-02-18T06:45:55;14.27;;;11.37;;
21665;SDS011;10994;45.486;9.190;2023-02-18T06:48:21;13.00;;;11.00;;
21665;SDS011;10994;45.486;9.190;2023-02-18T06:50:47;18.63;;;10.90;;
21665;SDS011;10994;45.486;9.190;2023-02-18T06:53:14;12.40;;;10.17;;
21665;SDS011;10994;45.486;9.190;2023-02-18T06:55:41;14.43;;;11.27;;
21665;SDS011;10994;45.486;9.190;2023-02-18T06:58:08;13.83;;;10.47;;
21665;SDS011;10994;45.486;9.190;2023-02-18T07:00:34;11.57;;;10.00;;
21665;SDS011;10994;45.486;9.190;2023-02-18T07:03:01;17.20;;;11.80;;
21665;SDS011;10994;45.486;9.190;2023-02-18T07:05:27;14.53;;;11.63;;
21665;SDS011;10994;45.486;9.190;2023-02-18T07:07:53;15.73;;;11.00;;
21665;SDS011;10994;45.486;9.190;2023-02-18T07:10:19;13.17;;;10.00;;
21665;SDS011;10994;45.486;9.190;2023-02-18T07:12:45;13.70;;;10.57;;
21665;SDS011;10994;45.486;9.190;2023-02-18T07:15:11;13.07;;;10.63;;
21665;SDS011;10994;45.486;9.190;2023-02-18T07:17:37;15.17;;;11.20;;
21665;SDS011;10994;45.486;9.190;2023-02-18T07:20:04;16.03;;;10.93;;
21665;SDS011;10994;45.486;9.190;2023-02-18T07:22:30;13.43;;;11.20;;
21665;SDS011;10994;45.486;9.190;2023-02-18T07:24:57;16.00;;;13.07;;
21665;SDS011;10994;45.486;9.190;2023-02-18T07:27:23;18.20;;;12.83;;
21665;SDS011;10994;45.486;9.190;2023-02-18T07:29:49;12.57;;;11.27;;
21665;SDS011;10994;45.486;9.190;2023-02-18T07:32:15;19.57;;;13.40;;
21665;SDS011;10994;45.486;9.190;2023-02-18T07:34:42;13.87;;;10.87;;
21665;SDS011;10994;45.486;9.190;2023-02-18T07:37:09;13.57;;;12.17;;
21665;SDS011;10994;45.486;9.190;2023-02-18T07:39:39;16.33;;;13.27;;
21665;SDS011;10994;45.486;9.190;2023-02-18T07:42:05;16.67;;;12.83;;
21665;SDS011;10994;45.486;9.190;2023-02-18T07:44:31;15.13;;;12.33;;
21665;SDS011;10994;45.486;9.190;2023-02-18T07:46:57;15.63;;;12.80;;
21665;SDS011;10994;45.486;9.190;2023-02-18T07:49:24;15.90;;;12.50;;
21665;SDS011;10994;45.486;9.190;2023-02-18T07:51:50;16.57;;;12.67;;
21665;SDS011;10994;45.486;9.190;2023-02-18T07:54:16;19.53;;;15.10;;
21665;SDS011;10994;45.486;9.190;2023-02-18T07:56:42;18.07;;;13.37;;
21665;SDS011;10994;45.486;9.190;2023-02-18T07:59:09;17.87;;;13.33;;
21665;SDS011;10994;45.486;9.190;2023-02-18T08:01:35;16.77;;;13.20;;
21665;SDS011;10994;45.486;9.190;2023-02-18T08:04:04;14.93;;;12.07;;
21665;SDS011;10994;45.486;9.190;2023-02-18T08:06:37;15.40;;;13.03;;
21665;SDS011;10994;45.486;9.190;2023-02-18T08:09:07;19.57;;;14.40;;
21665;SDS011;10994;45.486;9.190;2023-02-18T08:11:33;14.80;;;13.00;;
21665;SDS011;10994;45.486;9.190;2023-02-18T08:14:02;17.67;;;13.67;;
21665;SDS011;10994;45.486;9.190;2023-02-18T08:16:28;15.43;;;13.57;;
21665;SDS011;10994;45.486;9.190;2023-02-18T08:18:54;17.23;;;14.07;;
21665;SDS011;10994;45.486;9.190;2023-02-18T08:21:21;18.53;;;13.93;;
21665;SDS011;10994;45.486;9.190;2023-02-18T08:23:48;22.63;;;15.00;;
21665;SDS011;10994;45.486;9.190;2023-02-18T08:26:14;17.13;;;13.67;;
21665;SDS011;10994;45.486;9.190;2023-02-18T08:28:43;17.07;;;13.70;;
21665;SDS011;10994;45.486;9.190;2023-02-18T08:31:18;18.07;;;14.03;;
21665;SDS011;10994;45.486;9.190;2023-02-18T08:33:44;18.17;;;13.70;;
21665;SDS011;10994;45.486;9.190;2023-02-18T08:36:13;18.50;;;14.33;;
21665;SDS011;10994;45.486;9.190;2023-02-18T08:38:39;21.77;;;14.47;;
21665;SDS011;10994;45.486;9.190;2023-02-18T08:41:06;22.60;;;15.30;;
21665;SDS011;10994;45.486;9.190;2023-02-18T08:43:33;19.07;;;15.17;;
21665;SDS011;10994;45.486;9.190;2023-02-18T08:46:00;19.87;;;15.47;;
21665;SDS011;10994;45.486;9.190;2023-02-18T08:48:26;19.90;;;15.07;;
21665;SDS011;10994;45.486;9.190;2023-02-18T08:50:53;18.33;;;14.63;;
21665;SDS011;10994;45.486;9.190;2023-02-18T08:53:19;19.07;;;16.07;;
21665;SDS011;10994;45.486;9.190;2023-02-18T08:55:45;18.20;;;14.90;;
21665;SDS011;10994;45.486;9.190;2023-02-18T08:58:12;19.50;;;15.77;;
21665;SDS011;10994;45.486;9.190;2023-02-18T09:00:38;20.63;;;15.10;;
21665;SDS011;10994;45.486;9.190;2023-02-18T09:03:04;22.67;;;16.13;;
21665;SDS011;10994;45.486;9.190;2023-02-18T09:05:31;20.43;;;15.47;;
21665;SDS011;10994;45.486;9.190;2023-02-18T09:07:57;20.50;;;16.20;;
21665;SDS011;10994;45.486;9.190;2023-02-18T09:10:23;18.73;;;15.53;;
21665;SDS011;10994;45.486;9.190;2023-02-18T09:12:49;17.77;;;15.20;;
21665;SDS011;10994;45.486;9.190;2023-02-18T09:15:15;19.60;;;15.33;;
21665;SDS011;10994;45.486;9.190;2023-02-18T09:17:41;19.23;;;15.60;;
21665;SDS011;10994;45.486;9.190;2023-02-18T09:20:11;21.13;;;15.20;;
21665;SDS011;10994;45.486;9.190;2023-02-18T09:22:37;19.77;;;15.03;;
21665;SDS011;10994;45.486;9.190;2023-02-18T09:25:03;18.37;;;15.23;;
21665;SDS011;10994;45.486;9.190;2023-02-18T09:27:29;23.47;;;14.47;;
21665;SDS011;10994;45.486;9.190;2023-02-18T09:29:55;21.63;;;15.57;;
21665;SDS011;10994;45.486;9.190;2023-02-18T09:32:21;23.73;;;15.90;;
21665;SDS011;10994;45.486;9.190;2023-02-18T09:34:47;19.43;;;14.67;;
21665;SDS011;10994;45.486;9.190;2023-02-18T09:37:13;20.47;;;14.60;;
21665;SDS011;10994;45.486;9.190;2023-02-18T09:39:40;22.43;;;15.37;;
21665;SDS011;10994;45.486;9.190;2023-02-18T09:42:07;25.13;;;16.77;;
21665;SDS011;10994;45.486;9.190;2023-02-18T09:47:12;19.47;;;13.77;;
21665;SDS011;10994;45.486;9.190;2023-02-18T09:49:40;22.30;;;15.10;;
21665;SDS011;10994;45.486;9.190;2023-02-18T09:52:13;28.23;;;15.27;;
21665;SDS011;10994;45.486;9.190;2023-02-18T09:54:40;34.23;;;14.73;;
21665;SDS011;10994;45.486;9.190;2023-02-18T09:57:11;25.00;;;16.47;;
21665;SDS011;10994;45.486;9.190;2023-02-18T09:59:40;26.07;;;13.13;;
21665;SDS011;10994;45.486;9.190;2023-02-18T10:02:09;18.90;;;13.27;;
21665;SDS011;10994;45.486;9.190;2023-02-18T10:04:40;26.77;;;12.97;;
21665;SDS011;10994;45.486;9.190;2023-02-18T10:07:17;35.17;;;12.57;;
21665;SDS011;10994;45.486;9.190;2023-02-18T10:09:44;34.80;;;13.73;;
21665;SDS011;10994;45.486;9.190;2023-02-18T10:12:15;44.00;;;13.90;;
21665;SDS011;10994;45.486;9.190;2023-02-18T10:14:47;34.27;;;13.93;;
21665;SDS011;10994;45.486;9.190;2023-02-18T10:17:14;76.33;;;15.60;;
21665;SDS011;10994;45.486;9.190;2023-02-18T10:19:41;35.47;;;13.10;;
21665;SDS011;10994;45.486;9.190;2023-02-18T10:22:09;29.50;;;13.23;;
21665;SDS011;10994;45.486;9.190;2023-02-18T10:24:37;37.60;;;12.57;;
21665;SDS011;10994;45.486;9.190;2023-02-18T10:29:53;57.83;;;13.93;;
21665;SDS011;10994;45.486;9.190;2023-02-18T10:32:42;70.13;;;15.37;;
21665;SDS011;10994;45.486;9.190;2023-02-18T10:35:17;39.00;;;13.23;;
21665;SDS011;10994;45.486;9.190;2023-02-18T10:38:10;49.80;;;14.27;;
21665;SDS011;10994;45.486;9.190;2023-02-18T10:48:41;36.37;;;12.17;;
21665;SDS011;10994;45.486;9.190;2023-02-18T10:51:18;89.03;;;26.03;;
21665;SDS011;10994;45.486;9.190;2023-02-18T10:53:45;72.63;;;20.03;;
21665;SDS011;10994;45.486;9.190;2023-02-18T10:56:34;64.57;;;14.73;;
21665;SDS011;10994;45.486;9.190;2023-02-18T10:59:08;112.73;;;18.33;;
21665;SDS011;10994;45.486;9.190;2023-02-18T11:01:35;44.93;;;12.10;;
21665;SDS011;10994;45.486;9.190;2023-02-18T11:04:17;24.13;;;11.23;;
21665;SDS011;10994;45.486;9.190;2023-02-18T11:06:45;34.37;;;12.40;;
21665;SDS011;10994;45.486;9.190;2023-02-18T11:09:24;52.17;;;13.77;;
21665;SDS011;10994;45.486;9.190;2023-02-18T11:11:50;69.87;;;14.87;;
21665;SDS011;10994;45.486;9.190;2023-02-18T11:14:33;55.17;;;13.33;;
21665;SDS011;10994;45.486;9.190;2023-02-18T11:17:15;16.87;;;10.20;;
21665;SDS011;10994;45.486;9.190;2023-02-18T11:19:57;25.40;;;11.00;;
21665;SDS011;10994;45.486;9.190;2023-02-18T11:22:32;52.43;;;13.97;;
21665;SDS011;10994;45.486;9.190;2023-02-18T11:25:17;32.17;;;12.20;;
21665;SDS011;10994;45.486;9.190;2023-02-18T11:27:54;18.67;;;9.83;;
21665;SDS011;10994;45.486;9.190;2023-02-18T11:32:58;24.60;;;10.87;;
21665;SDS011;10994;45.486;9.190;2023-02-18T11:35:27;15.73;;;10.17;;
21665;SDS011;10994;45.486;9.190;2023-02-18T11:37:56;21.53;;;11.43;;
21665;SDS011;10994;45.486;9.190;2023-02-18T11:40:34;29.47;;;11.17;;
21665;SDS011;10994;45.486;9.190;2023-02-18T11:45:39;27.30;;;15.27;;
21665;SDS011;10994;45.486;9.190;2023-02-18T11:48:06;15.47;;;10.90;;
21665;SDS011;10994;45.486;9.190;2023-02-18T11:50:33;12.47;;;10.90;;
21665;SDS011;10994;45.486;9.190;2023-02-18T11:52:59;25.27;;;18.03;;
21665;SDS011;10994;45.486;9.190;2023-02-18T11:55:57;18.07;;;10.30;;
21665;SDS011;10994;45.486;9.190;2023-02-18T11:58:29;21.70;;;12.33;;
21665;SDS011;10994;45.486;9.190;2023-02-18T12:01:11;17.73;;;11.00;;
21665;SDS011;10994;45.486;9.190;2023-02-18T12:03:48;12.20;;;10.20;;
21665;SDS011;10994;45.486;9.190;2023-02-18T12:06:24;17.03;;;10.17;;
21665;SDS011;10994;45.486;9.190;2023-02-18T12:08:55;13.30;;;8.87;;
21665;SDS011;10994;45.486;9.190;2023-02-18T12:11:30;17.10;;;9.77;;
21665;SDS011;10994;45.486;9.190;2023-02-18T12:14:08;17.80;;;9.63;;
21665;SDS011;10994;45.486;9.190;2023-02-18T12:22:25;118.77;;;19.43;;
21665;SDS011;10994;45.486;9.190;2023-02-18T12:27:28;16.23;;;9.43;;
21665;SDS011;10994;45.486;9.190;2023-02-18T12:32:49;30.33;;;20.90;;
21665;SDS011;10994;45.486;9.190;2023-02-18T12:35:36;48.57;;;26.77;;
21665;SDS011;10994;45.486;9.190;2023-02-18T12:40:47;16.43;;;11.87;;
21665;SDS011;10994;45.486;9.190;2023-02-18T12:46:18;12.95;;;9.73;;
21665;SDS011;10994;45.486;9.190;2023-02-18T12:57:35;8.73;;;6.47;;
21665;SDS011;10994;45.486;9.190;2023-02-18T13:17:14;9.23;;;7.13;;
21665;SDS011;10994;45.486;9.190;2023-02-18T13:22:14;9.23;;;7.07;;
21665;SDS011;10994;45.486;9.190;2023-02-18T13:24:42;8.70;;;6.70;;
21665;SDS011;10994;45.486;9.190;2023-02-18T13:32:50;9.53;;;6.87;;
21665;SDS011;10994;45.486;9.190;2023-02-18T13:35:33;10.30;;;6.90;;
21665;SDS011;10994;45.486;9.190;2023-02-18T13:41:01;28.13;;;19.07;;
21665;SDS011;10994;45.486;9.190;2023-02-18T13:43:32;9.03;;;7.53;;
21665;SDS011;10994;45.486;9.190;2023-02-18T13:48:38;8.00;;;7.20;;
21665;SDS011;10994;45.486;9.190;2023-02-18T13:51:08;8.00;;;6.80;;
21665;SDS011;10994;45.486;9.190;2023-02-18T13:53:36;9.90;;;8.00;;
21665;SDS011;10994;45.486;9.190;2023-02-18T13:56:08;11.97;;;8.07;;
21665;SDS011;10994;45.486;9.190;2023-02-18T13:58:48;9.30;;;7.63;;
21665;SDS011;10994;45.486;9.190;2023-02-18T14:01:24;10.90;;;7.33;;
21665;SDS011;10994;45.486;9.190;2023-02-18T14:04:32;9.27;;;8.10;;
21665;SDS011;10994;45.486;9.190;2023-02-18T14:10:03;9.40;;;8.10;;
21665;SDS011;10994;45.486;9.190;2023-02-18T14:33:29;9.50;;;7.23;;
21665;SDS011;10994;45.486;9.190;2023-02-18T14:50:04;9.00;;;7.30;;
21665;SDS011;10994;45.486;9.190;2023-02-18T14:55:14;11.03;;;6.60;;
21665;SDS011;10994;45.486;9.190;2023-02-18T14:57:52;7.50;;;6.13;;
21665;SDS011;10994;45.486;9.190;2023-02-18T15:00:23;6.83;;;5.97;;
21665;SDS011;10994;45.486;9.190;2023-02-18T15:02:56;6.13;;;5.50;;
21665;SDS011;10994;45.486;9.190;2023-02-18T15:05:24;7.63;;;6.33;;
21665;SDS011;10994;45.486;9.190;2023-02-18T15:07:57;7.33;;;6.10;;
21665;SDS011;10994;45.486;9.190;2023-02-18T15:10:30;7.13;;;5.10;;
21665;SDS011;10994;45.486;9.190;2023-02-18T15:13:16;7.20;;;5.90;;
21665;SDS011;10994;45.486;9.190;2023-02-18T15:15:47;6.33;;;4.90;;
21665;SDS011;10994;45.486;9.190;2023-02-18T15:21:06;5.53;;;4.53;;
21665;SDS011;10994;45.486;9.190;2023-02-18T15:23:34;4.93;;;4.27;;
21665;SDS011;10994;45.486;9.190;2023-02-18T15:26:03;5.10;;;4.23;;
21665;SDS011;10994;45.486;9.190;2023-02-18T15:28:31;9.57;;;4.83;;
21665;SDS011;10994;45.486;9.190;2023-02-18T15:30:58;5.67;;;4.17;;
21665;SDS011;10994;45.486;9.190;2023-02-18T15:33:26;4.60;;;4.10;;
21665;SDS011;10994;45.486;9.190;2023-02-18T15:36:01;5.20;;;4.67;;
21665;SDS011;10994;45.486;9.190;2023-02-18T15:38:35;9.97;;;5.83;;
21665;SDS011;10994;45.486;9.190;2023-02-18T15:41:07;6.73;;;4.17;;
21665;SDS011;10994;45.486;9.190;2023-02-18T15:43:38;5.40;;;4.63;;
21665;SDS011;10994;45.486;9.190;2023-02-18T15:46:16;9.17;;;5.20;;
21665;SDS011;10994;45.486;9.190;2023-02-18T15:48:45;9.50;;;4.77;;
21665;SDS011;10994;45.486;9.190;2023-02-18T15:51:19;6.50;;;4.67;;
21665;SDS011;10994;45.486;9.190;2023-02-18T15:53:52;6.83;;;4.60;;
21665;SDS011;10994;45.486;9.190;2023-02-18T15:56:23;6.67;;;5.57;;
21665;SDS011;10994;45.486;9.190;2023-02-18T15:59:18;5.70;;;4.53;;
21665;SDS011;10994;45.486;9.190;2023-02-18T16:01:52;8.50;;;6.17;;
21665;SDS011;10994;45.486;9.190;2023-02-18T16:04:38;6.47;;;4.57;;
21665;SDS011;10994;45.486;9.190;2023-02-18T16:10:12;6.63;;;5.03;;
21665;SDS011;10994;45.486;9.190;2023-02-18T16:13:00;6.33;;;3.87;;
21665;SDS011;10994;45.486;9.190;2023-02-18T16:15:37;4.53;;;3.93;;
21665;SDS011;10994;45.486;9.190;2023-02-18T16:18:05;5.73;;;3.60;;
21665;SDS011;10994;45.486;9.190;2023-02-18T16:20:32;4.27;;;3.83;;
21665;SDS011;10994;45.486;9.190;2023-02-18T16:23:01;8.17;;;3.97;;
21665;SDS011;10994;45.486;9.190;2023-02-18T16:28:09;7.50;;;4.07;;
21665;SDS011;10994;45.486;9.190;2023-02-18T16:30:51;7.37;;;3.60;;
21665;SDS011;10994;45.486;9.190;2023-02-18T16:33:18;4.73;;;3.80;;
21665;SDS011;10994;45.486;9.190;2023-02-18T16:35:44;7.27;;;4.57;;
21665;SDS011;10994;45.486;9.190;2023-02-18T16:38:14;7.50;;;4.10;;
21665;SDS011;10994;45.486;9.190;2023-02-18T16:40:50;5.30;;;3.67;;
21665;SDS011;10994;45.486;9.190;2023-02-18T16:43:21;6.73;;;4.17;;
21665;SDS011;10994;45.486;9.190;2023-02-18T16:45:51;4.03;;;3.63;;
21665;SDS011;10994;45.486;9.190;2023-02-18T16:48:31;4.33;;;3.57;;
21665;SDS011;10994;45.486;9.190;2023-02-18T16:51:05;4.53;;;3.60;;
21665;SDS011;10994;45.486;9.190;2023-02-18T16:53:34;3.73;;;3.33;;
21665;SDS011;10994;45.486;9.190;2023-02-18T16:56:04;6.10;;;3.73;;
21665;SDS011;10994;45.486;9.190;2023-02-18T16:58:31;5.60;;;4.10;;
21665;SDS011;10994;45.486;9.190;2023-02-18T17:00:56;5.40;;;4.60;;
21665;SDS011;10994;45.486;9.190;2023-02-18T17:03:25;7.23;;;3.50;;
21665;SDS011;10994;45.486;9.190;2023-02-18T17:05:51;4.60;;;3.00;;
21665;SDS011;10994;45.486;9.190;2023-02-18T17:10:47;5.80;;;3.53;;
21665;SDS011;10994;45.486;9.190;2023-02-18T17:13:15;3.87;;;3.17;;
21665;SDS011;10994;45.486;9.190;2023-02-18T17:15:46;4.17;;;2.93;;
21665;SDS011;10994;45.486;9.190;2023-02-18T17:18:14;5.80;;;3.40;;
21665;SDS011;10994;45.486;9.190;2023-02-18T17:20:41;7.47;;;3.57;;
21665;SDS011;10994;45.486;9.190;2023-02-18T17:26:00;4.13;;;3.43;;
21665;SDS011;10994;45.486;9.190;2023-02-18T17:28:28;4.90;;;3.40;;
21665;SDS011;10994;45.486;9.190;2023-02-18T17:30:55;5.10;;;3.57;;